Time;durP1;ratioP1;P1;durP2;ratioP2;P2;SDS_P1;SDS_P2;PMS_P1;PMS_P2;Temp;Humidity;BMP_temperature;BMP_pressure;BME280_temperature;BME280_humidity;BME280_pressure;Samples;Min_cycle;Max_cycle;Signal;HPM_P1;HPM_P2
2022/07/03 00:00:38;;;;;;;13.23;6.05;;;;;;;;;;3360801;42;20076;-58
2022/07/03 00:03:04;;;;;;;14.80;5.82;;;;;;;;;;3361578;42;20118;-58
2022/07/03 00:05:30;;;;;;;10.43;5.50;;;;;;;;;;3361844;42;20088;-60
2022/07/03 00:07:56;;;;;;;11.23;5.80;;;;;;;;;;3360143;42;20080;-58
2022/07/03 00:10:22;;;;;;;14.68;6.03;;;;;;;;;;3356523;42;20095;-58
2022/07/03 00:12:48;;;;;;;13.00;5.90;;;;;;;;;;3356667;42;20506;-58
2022/07/03 00:15:14;;;;;;;11.25;5.65;;;;;;;;;;3358142;42;20100;-59
2022/07/03 00:17:40;;;;;;;13.83;5.80;;;;;;;;;;3358046;42;20080;-58
2022/07/03 00:20:07;;;;;;;14.57;5.90;;;;;;;;;;3358369;42;20088;-58
2022/07/03 00:22:33;;;;;;;10.73;6.03;;;;;;;;;;3357739;42;20733;-59
2022/07/03 00:25:04;;;;;;;11.70;6.10;;;;;;;;;;3358425;42;20107;-58
2022/07/03 00:27:33;;;;;;;13.38;6.28;;;;;;;;;;3356448;42;20132;-58
2022/07/03 00:29:59;;;;;;;12.00;6.22;;;;;;;;;;3356705;42;20554;-59
2022/07/03 00:32:25;;;;;;;11.75;5.45;;;;;;;;;;3357928;42;20166;-60
2022/07/03 00:34:53;;;;;;;12.70;6.35;;;;;;;;;;3358107;42;20093;-57
2022/07/03 00:37:19;;;;;;;13.17;5.90;;;;;;;;;;3356612;42;20178;-58
2022/07/03 00:39:45;;;;;;;12.80;6.35;;;;;;;;;;3357844;42;20096;-60
2022/07/03 00:42:11;;;;;;;12.27;6.25;;;;;;;;;;3356616;42;20719;-58
2022/07/03 00:44:51;;;;;;;13.10;6.13;;;;;;;;;;3356449;42;20139;-60
2022/07/03 00:47:18;;;;;;;12.43;5.93;;;;;;;;;;3356729;42;20090;-59
2022/07/03 00:49:47;;;;;;;10.30;5.30;;;;;;;;;;3359700;42;20166;-58
2022/07/03 00:52:13;;;;;;;11.07;5.47;;;;;;;;;;3357921;42;20115;-58
2022/07/03 00:54:43;;;;;;;15.00;6.15;;;;;;;;;;3357741;42;20084;-56
2022/07/03 00:57:13;;;;;;;13.50;6.00;;;;;;;;;;3358028;42;20092;-60
2022/07/03 00:59:39;;;;;;;12.63;6.03;;;;;;;;;;3356421;42;20103;-59
2022/07/03 01:02:05;;;;;;;11.57;5.50;;;;;;;;;;3357763;42;20115;-58
2022/07/03 01:04:45;;;;;;;11.93;6.03;;;;;;;;;;3357632;42;20198;-57
2022/07/03 01:07:17;;;;;;;13.70;5.60;;;;;;;;;;3356442;42;20092;-58
2022/07/03 01:09:52;;;;;;;12.73;5.90;;;;;;;;;;3356052;42;20088;-57
2022/07/03 01:12:37;;;;;;;13.15;5.68;;;;;;;;;;3363927;42;20597;-58
2022/07/03 01:15:21;;;;;;;9.97;5.47;;;;;;;;;;3357935;42;20602;-56
2022/07/03 01:17:58;;;;;;;11.52;5.80;;;;;;;;;;3357815;42;20144;-57
2022/07/03 01:20:28;;;;;;;12.98;5.60;;;;;;;;;;3356334;42;20092;-56
2022/07/03 01:22:58;;;;;;;14.40;5.68;;;;;;;;;;3357669;42;20559;-57
2022/07/03 01:25:42;;;;;;;10.88;5.43;;;;;;;;;;3356412;42;20106;-59
2022/07/03 01:28:13;;;;;;;9.90;5.33;;;;;;;;;;3356457;42;20190;-54
2022/07/03 01:30:45;;;;;;;10.85;5.50;;;;;;;;;;3356315;42;20149;-57
2022/07/03 01:33:22;;;;;;;10.40;5.63;;;;;;;;;;3356030;42;20151;-58
2022/07/03 01:36:07;;;;;;;12.68;5.68;;;;;;;;;;3356251;42;20136;-57
2022/07/03 01:38:35;;;;;;;11.52;5.70;;;;;;;;;;3357754;42;20464;-56
2022/07/03 01:41:02;;;;;;;13.97;5.97;;;;;;;;;;3357515;42;20088;-60
2022/07/03 01:43:36;;;;;;;11.20;5.45;;;;;;;;;;3357619;42;20103;-60
2022/07/03 01:46:03;;;;;;;11.75;5.55;;;;;;;;;;3356226;42;20172;-60
2022/07/03 01:48:29;;;;;;;9.95;5.53;;;;;;;;;;3355596;42;20155;-57
2022/07/03 01:50:55;;;;;;;10.35;5.60;;;;;;;;;;3357493;42;20092;-56
2022/07/03 01:53:32;;;;;;;11.13;6.30;;;;;;;;;;3357485;42;20148;-56
2022/07/03 01:55:59;;;;;;;10.45;5.97;;;;;;;;;;3356211;42;20140;-58
2022/07/03 01:58:26;;;;;;;12.02;6.07;;;;;;;;;;3357593;42;20156;-57
2022/07/03 02:01:01;;;;;;;12.85;6.15;;;;;;;;;;3355949;42;20140;-58
2022/07/03 02:03:32;;;;;;;13.90;6.63;;;;;;;;;;3357542;42;20096;-58
2022/07/03 02:06:20;;;;;;;14.63;5.93;;;;;;;;;;3357570;42;20088;-57
2022/07/03 02:09:01;;;;;;;10.70;5.70;;;;;;;;;;3356087;42;20096;-58
2022/07/03 02:11:28;;;;;;;11.93;6.47;;;;;;;;;;3355941;42;20664;-57
2022/07/03 02:14:16;;;;;;;10.48;6.10;;;;;;;;;;3359261;42;20103;-57
2022/07/03 02:17:04;;;;;;;13.23;6.50;;;;;;;;;;3360118;42;20196;-57
2022/07/03 02:19:37;;;;;;;12.07;5.90;;;;;;;;;;3359126;42;20088;-57
2022/07/03 02:22:03;;;;;;;12.65;6.45;;;;;;;;;;3357594;42;20122;-57
2022/07/03 02:24:29;;;;;;;14.13;6.60;;;;;;;;;;3350420;42;20115;-57
2022/07/03 02:27:03;;;;;;;14.55;6.93;;;;;;;;;;3350468;42;20096;-56
2022/07/03 02:29:50;;;;;;;13.10;6.65;;;;;;;;;;3359197;42;20174;-58
2022/07/03 02:32:19;;;;;;;14.13;6.60;;;;;;;;;;3359287;42;20089;-56
2022/07/03 02:34:47;;;;;;;14.23;6.50;;;;;;;;;;3357915;42;20104;-58
2022/07/03 02:37:18;;;;;;;14.45;7.18;;;;;;;;;;3357897;42;20136;-56
2022/07/03 02:39:55;;;;;;;13.13;6.90;;;;;;;;;;3359033;42;20088;-58
2022/07/03 02:42:50;;;;;;;12.10;6.22;;;;;;;;;;3357795;42;20085;-58
2022/07/03 02:45:16;;;;;;;13.50;6.27;;;;;;;;;;3358875;42;20565;-58
2022/07/03 02:48:05;;;;;;;14.05;6.70;;;;;;;;;;3357714;42;20555;-57
2022/07/03 02:50:31;;;;;;;14.35;6.90;;;;;;;;;;3350702;42;20143;-55
2022/07/03 02:53:07;;;;;;;12.52;6.95;;;;;;;;;;3357672;42;20097;-56
2022/07/03 02:55:45;;;;;;;13.55;6.80;;;;;;;;;;3357136;42;20092;-62
2022/07/03 02:59:05;;;;;;;13.73;6.80;;;;;;;;;;3356316;42;20096;-56
2022/07/03 03:01:33;;;;;;;15.05;7.75;;;;;;;;;;3347564;42;20093;-56
2022/07/03 03:04:08;;;;;;;15.60;8.00;;;;;;;;;;3348621;42;20618;-61
2022/07/03 03:06:36;;;;;;;14.38;8.45;;;;;;;;;;3353131;42;20510;-56
2022/07/03 03:09:05;;;;;;;15.38;7.75;;;;;;;;;;3358772;42;20088;-56
2022/07/03 03:11:44;;;;;;;12.17;7.93;;;;;;;;;;3357028;42;20119;-58
2022/07/03 03:14:14;;;;;;;15.80;8.77;;;;;;;;;;3359988;42;20115;-55
2022/07/03 03:17:00;;;;;;;14.63;8.80;;;;;;;;;;3357457;42;20100;-59
2022/07/03 03:19:27;;;;;;;17.15;9.77;;;;;;;;;;3357637;42;20093;-56
2022/07/03 03:22:20;;;;;;;21.13;9.98;;;;;;;;;;3360048;42;20151;-60
2022/07/03 03:24:46;;;;;;;22.97;10.93;;;;;;;;;;3357308;42;20630;-59
2022/07/03 03:27:12;;;;;;;28.90;13.60;;;;;;;;;;3358694;42;20080;-57
2022/07/03 03:29:38;;;;;;;31.75;13.23;;;;;;;;;;3357481;42;20109;-56
2022/07/03 03:32:04;;;;;;;33.30;14.57;;;;;;;;;;3349744;42;20084;-57
2022/07/03 03:34:31;;;;;;;33.60;13.50;;;;;;;;;;3358527;42;20626;-56
2022/07/03 03:36:57;;;;;;;30.13;13.68;;;;;;;;;;3358592;42;20152;-57
2022/07/03 03:39:24;;;;;;;29.88;12.55;;;;;;;;;;3356766;42;20084;-57
2022/07/03 03:41:50;;;;;;;17.92;9.02;;;;;;;;;;3350051;42;20080;-59
2022/07/03 03:44:16;;;;;;;19.33;9.27;;;;;;;;;;3357351;42;20103;-58
2022/07/03 03:46:42;;;;;;;17.00;8.37;;;;;;;;;;3358256;42;20162;-57
2022/07/03 03:49:08;;;;;;;16.13;7.50;;;;;;;;;;3358230;42;20139;-57
2022/07/03 03:51:34;;;;;;;13.68;6.45;;;;;;;;;;3356646;42;20100;-57
2022/07/03 03:54:00;;;;;;;10.40;5.70;;;;;;;;;;3356725;42;20475;-58
2022/07/03 03:56:25;;;;;;;11.50;5.55;;;;;;;;;;3358461;42;20092;-58
2022/07/03 03:58:51;;;;;;;10.18;5.50;;;;;;;;;;3358241;42;20091;-57
2022/07/03 04:01:17;;;;;;;9.43;5.38;;;;;;;;;;3358541;42;20107;-57
2022/07/03 04:03:43;;;;;;;9.20;5.20;;;;;;;;;;3358539;42;20094;-55
2022/07/03 04:06:09;;;;;;;8.82;5.47;;;;;;;;;;3358206;42;20096;-55
2022/07/03 04:08:35;;;;;;;11.07;5.35;;;;;;;;;;3358328;42;20097;-57
2022/07/03 04:11:01;;;;;;;10.20;5.00;;;;;;;;;;3358924;42;20098;-57
2022/07/03 04:13:27;;;;;;;9.57;5.45;;;;;;;;;;3359004;42;20381;-56
2022/07/03 04:15:54;;;;;;;10.20;5.60;;;;;;;;;;3358675;42;20093;-57
2022/07/03 04:18:20;;;;;;;11.25;5.50;;;;;;;;;;3358347;42;20155;-58
2022/07/03 04:20:46;;;;;;;9.90;5.80;;;;;;;;;;3358424;42;20143;-58
2022/07/03 04:23:12;;;;;;;10.95;5.40;;;;;;;;;;3358475;42;20087;-58
2022/07/03 04:25:38;;;;;;;11.27;5.75;;;;;;;;;;3356662;42;20557;-58
2022/07/03 04:28:04;;;;;;;10.30;5.70;;;;;;;;;;3358527;42;20559;-57
2022/07/03 04:30:30;;;;;;;13.77;5.45;;;;;;;;;;3358544;42;20147;-59
2022/07/03 04:32:56;;;;;;;8.80;5.47;;;;;;;;;;3358077;42;20181;-59
2022/07/03 04:35:22;;;;;;;11.15;5.55;;;;;;;;;;3358165;42;20555;-56
2022/07/03 04:37:48;;;;;;;12.15;5.40;;;;;;;;;;3356465;42;20123;-59
2022/07/03 04:40:14;;;;;;;9.27;5.23;;;;;;;;;;3358236;42;20099;-60
2022/07/03 04:42:40;;;;;;;9.37;5.67;;;;;;;;;;3358245;42;20326;-60
2022/07/03 04:45:07;;;;;;;8.95;5.20;;;;;;;;;;3357982;42;20158;-56
2022/07/03 04:47:33;;;;;;;9.68;4.63;;;;;;;;;;3358098;42;20148;-59
2022/07/03 04:49:58;;;;;;;9.65;5.28;;;;;;;;;;3358295;42;20088;-58
2022/07/03 04:52:24;;;;;;;9.83;5.33;;;;;;;;;;3357898;42;20088;-58
2022/07/03 04:54:50;;;;;;;10.68;5.22;;;;;;;;;;3358079;42;20680;-57
2022/07/03 04:57:16;;;;;;;8.40;4.63;;;;;;;;;;3357650;42;20099;-57
2022/07/03 04:59:42;;;;;;;11.38;4.65;;;;;;;;;;3357572;42;20186;-58
2022/07/03 05:02:08;;;;;;;8.67;4.90;;;;;;;;;;3358136;42;20115;-57
2022/07/03 05:04:34;;;;;;;9.02;4.90;;;;;;;;;;3354134;42;20101;-58
2022/07/03 05:07:00;;;;;;;9.25;5.10;;;;;;;;;;3357844;42;20092;-58
2022/07/03 05:09:26;;;;;;;8.52;4.70;;;;;;;;;;3358061;42;20088;-58
2022/07/03 05:11:52;;;;;;;8.90;4.60;;;;;;;;;;3357806;42;20583;-59
2022/07/03 05:14:18;;;;;;;9.55;4.90;;;;;;;;;;3358168;42;20112;-58
2022/07/03 05:16:44;;;;;;;8.93;4.80;;;;;;;;;;3357977;42;20080;-59
2022/07/03 05:19:10;;;;;;;9.30;4.72;;;;;;;;;;3358094;42;20222;-58
2022/07/03 05:21:36;;;;;;;8.43;4.37;;;;;;;;;;3357910;42;20562;-59
2022/07/03 05:24:02;;;;;;;8.80;4.65;;;;;;;;;;3357774;42;20590;-59
2022/07/03 05:26:28;;;;;;;9.90;4.70;;;;;;;;;;3359131;42;20575;-58
2022/07/03 05:28:54;;;;;;;10.00;5.47;;;;;;;;;;3358385;42;20135;-58
2022/07/03 05:31:19;;;;;;;10.68;4.65;;;;;;;;;;3357848;42;20105;-60
2022/07/03 05:33:45;;;;;;;8.80;4.20;;;;;;;;;;3357796;42;20110;-57
2022/07/03 05:36:11;;;;;;;8.85;4.60;;;;;;;;;;3357859;42;20079;-58
2022/07/03 05:41:22;;;;;;;9.65;4.45;;;;;;;;;;3357932;42;20166;-59
2022/07/03 05:43:48;;;;;;;7.40;3.80;;;;;;;;;;3357792;42;20131;-59
2022/07/03 05:46:14;;;;;;;8.33;4.20;;;;;;;;;;3357643;42;20288;-58
2022/07/03 05:48:39;;;;;;;9.70;3.65;;;;;;;;;;3357488;42;20084;-58
2022/07/03 05:51:05;;;;;;;9.63;4.10;;;;;;;;;;3357623;42;20084;-57
2022/07/03 05:53:31;;;;;;;8.70;4.13;;;;;;;;;;3357764;42;20518;-60
2022/07/03 05:55:57;;;;;;;8.23;4.10;;;;;;;;;;3357650;42;20102;-56
2022/07/03 05:58:23;;;;;;;7.88;3.83;;;;;;;;;;3357728;42;20118;-59
2022/07/03 06:00:49;;;;;;;7.32;4.05;;;;;;;;;;3357951;42;20123;-59
2022/07/03 06:03:15;;;;;;;7.50;3.70;;;;;;;;;;3358028;42;20080;-59
2022/07/03 06:05:41;;;;;;;7.50;3.80;;;;;;;;;;3358147;42;20092;-60
2022/07/03 06:08:07;;;;;;;8.05;3.92;;;;;;;;;;3360035;42;20084;-59
2022/07/03 06:10:33;;;;;;;9.23;4.03;;;;;;;;;;3358207;42;20100;-58
2022/07/03 06:12:59;;;;;;;8.13;3.90;;;;;;;;;;3358036;42;20502;-58
2022/07/03 06:15:25;;;;;;;7.90;4.10;;;;;;;;;;3357841;42;20541;-58
2022/07/03 06:17:51;;;;;;;10.13;3.80;;;;;;;;;;3356416;42;20620;-60
2022/07/03 06:20:17;;;;;;;6.72;3.65;;;;;;;;;;3356506;42;20179;-60
2022/07/03 06:22:44;;;;;;;8.47;4.33;;;;;;;;;;3356651;42;20092;-57
2022/07/03 06:25:10;;;;;;;6.78;3.75;;;;;;;;;;3357620;42;20092;-58
2022/07/03 06:27:36;;;;;;;7.70;4.20;;;;;;;;;;3356328;42;20093;-58
2022/07/03 06:30:02;;;;;;;12.13;4.20;;;;;;;;;;3357424;42;20472;-60
2022/07/03 06:32:28;;;;;;;7.80;4.00;;;;;;;;;;3357886;42;20094;-58
2022/07/03 06:34:54;;;;;;;8.33;4.37;;;;;;;;;;3356265;42;20140;-60
2022/07/03 06:37:21;;;;;;;7.82;4.43;;;;;;;;;;3357649;42;20104;-60
2022/07/03 06:39:47;;;;;;;9.27;4.60;;;;;;;;;;3357727;42;20112;-60
2022/07/03 06:42:13;;;;;;;9.27;4.63;;;;;;;;;;3357751;42;20099;-60
2022/07/03 06:44:39;;;;;;;11.75;5.93;;;;;;;;;;3354209;42;20227;-48
2022/07/03 06:47:05;;;;;;;9.57;4.77;;;;;;;;;;3357808;42;20123;-52
2022/07/03 06:49:34;;;;;;;11.55;5.68;;;;;;;;;;3357903;42;20099;-50
2022/07/03 06:52:00;;;;;;;9.70;4.78;;;;;;;;;;3359159;42;20088;-52
2022/07/03 06:54:26;;;;;;;9.77;4.50;;;;;;;;;;3359219;42;20120;-54
2022/07/03 06:56:52;;;;;;;10.63;4.90;;;;;;;;;;3359090;42;20111;-60
2022/07/03 06:59:18;;;;;;;11.80;6.00;;;;;;;;;;3357000;42;20295;-54
2022/07/03 07:01:44;;;;;;;9.90;5.07;;;;;;;;;;3359703;42;20088;-52
2022/07/03 07:04:10;;;;;;;8.68;4.35;;;;;;;;;;3359983;42;20162;-53
2022/07/03 07:06:36;;;;;;;9.82;5.00;;;;;;;;;;3360094;42;20148;-51
2022/07/03 07:09:03;;;;;;;9.87;4.87;;;;;;;;;;3359659;42;20091;-54
2022/07/03 07:11:29;;;;;;;10.23;5.20;;;;;;;;;;3359905;42;20152;-53
2022/07/03 07:13:54;;;;;;;9.30;4.40;;;;;;;;;;3359234;42;20096;-49
2022/07/03 07:16:20;;;;;;;8.73;4.60;;;;;;;;;;3359255;42;20141;-61
2022/07/03 07:18:46;;;;;;;8.93;4.37;;;;;;;;;;3359761;42;20151;-51
2022/07/03 07:21:12;;;;;;;11.77;4.43;;;;;;;;;;3360505;42;20107;-57
2022/07/03 07:23:38;;;;;;;8.85;4.10;;;;;;;;;;3359215;42;20111;-56
2022/07/03 07:26:04;;;;;;;8.90;4.10;;;;;;;;;;3357136;42;20088;-59
2022/07/03 07:28:33;;;;;;;7.80;4.18;;;;;;;;;;3358205;42;20116;-51
2022/07/03 07:30:59;;;;;;;9.90;4.20;;;;;;;;;;3363047;42;20626;-51
2022/07/03 07:33:25;;;;;;;8.60;4.05;;;;;;;;;;3361692;42;20084;-51
2022/07/03 07:35:51;;;;;;;8.25;3.80;;;;;;;;;;3362386;42;20655;-53
2022/07/03 07:38:17;;;;;;;8.50;3.88;;;;;;;;;;3361632;42;20119;-55
2022/07/03 07:40:43;;;;;;;8.30;4.00;;;;;;;;;;3362443;42;20614;-53
2022/07/03 07:43:09;;;;;;;8.80;3.90;;;;;;;;;;3360439;42;20108;-54
2022/07/03 07:45:35;;;;;;;8.93;4.20;;;;;;;;;;3362681;42;20086;-54
2022/07/03 07:48:02;;;;;;;9.90;4.30;;;;;;;;;;3360543;42;20084;-53
2022/07/03 07:50:28;;;;;;;7.55;3.90;;;;;;;;;;3360379;42;20169;-51
2022/07/03 07:52:54;;;;;;;8.93;4.07;;;;;;;;;;3356985;42;20104;-53
2022/07/03 07:55:20;;;;;;;11.88;4.47;;;;;;;;;;3357424;42;20475;-57
2022/07/03 07:57:46;;;;;;;8.15;3.90;;;;;;;;;;3359084;42;20602;-59
2022/07/03 08:00:14;;;;;;;11.18;4.60;;;;;;;;;;3359789;42;20088;-57
2022/07/03 08:05:36;;;;;;;10.35;3.95;;;;;;;;;;3354366;42;20092;-55
2022/07/03 08:08:07;;;;;;;8.00;4.00;;;;;;;;;;3358561;42;20180;-58
2022/07/03 08:10:36;;;;;;;10.82;4.18;;;;;;;;;;3358112;42;20104;-59
2022/07/03 08:13:02;;;;;;;8.32;4.07;;;;;;;;;;3357579;42;20102;-56
2022/07/03 08:15:28;;;;;;;7.53;3.93;;;;;;;;;;3356822;42;20565;-56
2022/07/03 08:17:54;;;;;;;8.68;3.90;;;;;;;;;;3357760;42;20623;-59
2022/07/03 08:20:20;;;;;;;9.43;4.43;;;;;;;;;;3358017;42;20092;-57
2022/07/03 08:22:46;;;;;;;8.73;3.70;;;;;;;;;;3357891;42;20099;-57
2022/07/03 08:25:12;;;;;;;10.83;4.60;;;;;;;;;;3358331;42;20076;-55
2022/07/03 08:27:38;;;;;;;7.65;3.80;;;;;;;;;;3358341;42;20107;-56
2022/07/03 08:30:04;;;;;;;7.43;3.72;;;;;;;;;;3358367;42;20080;-55
2022/07/03 08:32:30;;;;;;;8.20;3.45;;;;;;;;;;3359871;42;20085;-58
2022/07/03 08:34:56;;;;;;;7.80;3.70;;;;;;;;;;3358454;42;20091;-58
2022/07/03 08:37:22;;;;;;;8.00;3.70;;;;;;;;;;3358321;42;20088;-58
2022/07/03 08:39:48;;;;;;;7.85;3.78;;;;;;;;;;3358345;42;20462;-58
2022/07/03 08:42:15;;;;;;;7.57;3.40;;;;;;;;;;3358194;42;20174;-55
2022/07/03 08:44:42;;;;;;;7.38;3.28;;;;;;;;;;3358137;42;20155;-56
2022/07/03 08:47:08;;;;;;;6.20;3.20;;;;;;;;;;3356537;42;20143;-56
2022/07/03 08:49:34;;;;;;;8.02;2.92;;;;;;;;;;3356721;42;20096;-55
2022/07/03 08:52:00;;;;;;;6.25;2.95;;;;;;;;;;3357533;42;20114;-57
2022/07/03 08:54:26;;;;;;;6.80;3.43;;;;;;;;;;3357883;42;20192;-59
2022/07/03 08:56:52;;;;;;;8.10;3.90;;;;;;;;;;3358130;42;20092;-55
2022/07/03 08:59:19;;;;;;;6.35;3.30;;;;;;;;;;3349594;42;20076;-58
2022/07/03 09:01:46;;;;;;;6.70;3.05;;;;;;;;;;3357013;42;20092;-58
2022/07/03 09:04:13;;;;;;;7.70;3.40;;;;;;;;;;3356630;42;20096;-58
2022/07/03 09:06:42;;;;;;;9.25;3.35;;;;;;;;;;3358182;42;20618;-53
2022/07/03 09:09:10;;;;;;;6.78;3.35;;;;;;;;;;3357787;42;20089;-58
2022/07/03 09:11:37;;;;;;;7.50;3.70;;;;;;;;;;3357847;42;20085;-57
2022/07/03 09:14:06;;;;;;;10.10;3.40;;;;;;;;;;3356314;42;20080;-53
2022/07/03 09:16:35;;;;;;;7.07;3.10;;;;;;;;;;3356472;42;20080;-55
2022/07/03 09:19:02;;;;;;;9.00;3.45;;;;;;;;;;3357388;42;20076;-58
2022/07/03 09:21:41;;;;;;;6.82;3.40;;;;;;;;;;3357675;42;20080;-52
2022/07/03 09:24:08;;;;;;;7.72;3.63;;;;;;;;;;3356033;42;20080;-55
2022/07/03 09:26:34;;;;;;;7.85;3.70;;;;;;;;;;3357612;42;20128;-54
2022/07/03 09:29:00;;;;;;;6.83;3.40;;;;;;;;;;3356128;42;20096;-56
2022/07/03 09:31:30;;;;;;;9.70;3.75;;;;;;;;;;3356047;42;20154;-55
2022/07/03 09:34:03;;;;;;;8.77;4.45;;;;;;;;;;3358541;42;20102;-55
2022/07/03 09:36:39;;;;;;;8.55;3.90;;;;;;;;;;3359275;42;20084;-58
2022/07/03 09:39:16;;;;;;;15.48;4.90;;;;;;;;;;3361527;42;20170;-58
2022/07/03 09:41:55;;;;;;;10.63;4.80;;;;;;;;;;3359296;42;20136;-54
2022/07/03 09:44:41;;;;;;;14.32;5.38;;;;;;;;;;3359274;42;20506;-54
2022/07/03 09:47:07;;;;;;;9.95;3.80;;;;;;;;;;3355932;42;20577;-55
2022/07/03 09:49:54;;;;;;;10.82;3.72;;;;;;;;;;3356962;42;20080;-52
2022/07/03 09:52:45;;;;;;;8.52;3.95;;;;;;;;;;3354418;42;20215;-55
2022/07/03 09:55:11;;;;;;;7.33;3.63;;;;;;;;;;3357244;42;20111;-53
2022/07/03 09:57:50;;;;;;;8.88;3.60;;;;;;;;;;3357311;42;20096;-55
2022/07/03 10:00:26;;;;;;;7.35;3.78;;;;;;;;;;3359544;42;20138;-57
2022/07/03 10:02:57;;;;;;;6.55;3.40;;;;;;;;;;3357190;42;20625;-58
2022/07/03 10:05:25;;;;;;;7.37;3.17;;;;;;;;;;3357578;42;20527;-55
2022/07/03 10:08:00;;;;;;;6.82;3.15;;;;;;;;;;3357038;42;20480;-54
2022/07/03 10:10:28;;;;;;;8.02;3.50;;;;;;;;;;3356722;42;20566;-56
2022/07/03 10:12:54;;;;;;;7.43;3.47;;;;;;;;;;3357555;42;20100;-56
2022/07/03 10:15:21;;;;;;;7.20;3.40;;;;;;;;;;3355600;42;20631;-56
2022/07/03 10:17:49;;;;;;;8.27;4.00;;;;;;;;;;3357346;42;20693;-55
2022/07/03 10:20:18;;;;;;;7.30;3.60;;;;;;;;;;3356253;42;20100;-53
2022/07/03 10:22:46;;;;;;;7.75;3.60;;;;;;;;;;3356563;42;20160;-58
2022/07/03 10:25:13;;;;;;;9.90;3.80;;;;;;;;;;3355778;42;20628;-56
2022/07/03 10:27:39;;;;;;;8.32;4.10;;;;;;;;;;3355868;42;20152;-57
2022/07/03 10:30:05;;;;;;;8.80;3.70;;;;;;;;;;3357240;42;20084;-55
2022/07/03 10:32:34;;;;;;;8.65;3.47;;;;;;;;;;3357099;42;20084;-57
2022/07/03 10:35:01;;;;;;;7.47;4.00;;;;;;;;;;3356774;42;20144;-53
2022/07/03 10:37:31;;;;;;;7.53;3.60;;;;;;;;;;3358932;42;20167;-54
2022/07/03 10:45:38;;;;;;;7.93;3.95;;;;;;;;;;3349863;42;20097;-55
2022/07/03 10:48:04;;;;;;;8.63;4.18;;;;;;;;;;3358677;42;20099;-52
2022/07/03 10:50:32;;;;;;;6.80;3.63;;;;;;;;;;3359297;42;20092;-54
2022/07/03 10:53:22;;;;;;;7.95;3.70;;;;;;;;;;3359352;42;20110;-56
2022/07/03 10:56:03;;;;;;;13.43;3.70;;;;;;;;;;3354302;42;20172;-57
2022/07/03 10:58:29;;;;;;;8.00;3.60;;;;;;;;;;3359580;42;20100;-54
2022/07/03 11:00:58;;;;;;;8.05;3.67;;;;;;;;;;3359197;42;20119;-52
2022/07/03 11:03:54;;;;;;;8.02;3.78;;;;;;;;;;3359069;42;20108;-55
2022/07/03 11:06:20;;;;;;;7.13;3.40;;;;;;;;;;3359698;42;20077;-55
2022/07/03 11:09:02;;;;;;;7.40;3.47;;;;;;;;;;3359128;42;20621;-58
2022/07/03 11:11:56;;;;;;;7.57;3.38;;;;;;;;;;3359247;42;20510;-56
2022/07/03 11:14:26;;;;;;;8.63;3.80;;;;;;;;;;3359615;42;20642;-56
2022/07/03 11:17:18;;;;;;;7.15;3.55;;;;;;;;;;3358826;42;20135;-55
2022/07/03 11:20:23;;;;;;;8.30;4.00;;;;;;;;;;3354361;42;20139;-51
2022/07/03 11:22:41;;;;;;;7.78;3.33;;;;;;;;;;3359684;42;20092;-57
2022/07/03 11:25:07;;;;;;;8.38;3.53;;;;;;;;;;3358572;42;20124;-53
2022/07/03 11:27:36;;;;;;;8.23;3.40;;;;;;;;;;3350021;42;20093;-57
2022/07/03 11:30:03;;;;;;;8.05;3.08;;;;;;;;;;3356496;42;20498;-56
2022/07/03 11:32:49;;;;;;;11.87;3.43;;;;;;;;;;3359892;42;20147;-55
2022/07/03 11:35:51;;;;;;;7.85;3.30;;;;;;;;;;3353633;42;20156;-51
2022/07/03 11:38:28;;;;;;;6.75;3.05;;;;;;;;;;3357392;42;20199;-54
2022/07/03 11:40:55;;;;;;;6.85;3.30;;;;;;;;;;3358571;42;20129;-54
2022/07/03 11:43:21;;;;;;;8.38;3.90;;;;;;;;;;3358086;42;20096;-58
2022/07/03 11:45:47;;;;;;;8.63;3.63;;;;;;;;;;3359003;42;20589;-57
2022/07/03 11:48:15;;;;;;;6.65;3.58;;;;;;;;;;3357957;42;20080;-55
2022/07/03 11:50:43;;;;;;;9.13;4.00;;;;;;;;;;3359110;42;20891;-55
2022/07/03 11:53:31;;;;;;;10.05;4.50;;;;;;;;;;3357605;42;20613;-56
2022/07/03 11:56:05;;;;;;;8.23;3.70;;;;;;;;;;3358152;42;20140;-56
2022/07/03 11:58:49;;;;;;;7.70;3.60;;;;;;;;;;3358120;42;20579;-54
2022/07/03 12:01:26;;;;;;;8.10;4.18;;;;;;;;;;3359112;42;20119;-53
2022/07/03 12:04:14;;;;;;;7.68;3.95;;;;;;;;;;3355799;42;20162;-55
2022/07/03 12:06:45;;;;;;;8.38;3.75;;;;;;;;;;3360013;42;20096;-53
2022/07/03 12:09:16;;;;;;;7.57;4.35;;;;;;;;;;3358619;42;20092;-57
2022/07/03 12:11:51;;;;;;;8.87;4.30;;;;;;;;;;3357421;42;20146;-53
2022/07/03 12:14:17;;;;;;;10.75;4.35;;;;;;;;;;3357212;42;20095;-54
2022/07/03 12:16:43;;;;;;;10.82;4.80;;;;;;;;;;3358517;42;20125;-58
2022/07/03 12:19:09;;;;;;;9.93;4.27;;;;;;;;;;3358941;42;20084;-56
2022/07/03 12:21:39;;;;;;;18.93;6.40;;;;;;;;;;3358610;42;20311;-53
2022/07/03 12:24:12;;;;;;;32.15;12.15;;;;;;;;;;3359022;42;20159;-54
2022/07/03 12:26:38;;;;;;;16.30;5.63;;;;;;;;;;3361420;42;20550;-55
2022/07/03 12:29:09;;;;;;;16.23;6.63;;;;;;;;;;3360776;42;20084;-54
2022/07/03 12:31:35;;;;;;;26.43;10.37;;;;;;;;;;3360618;42;20084;-52
2022/07/03 12:34:01;;;;;;;17.80;5.95;;;;;;;;;;3363607;42;20294;-56
2022/07/03 12:36:28;;;;;;;10.20;4.55;;;;;;;;;;3361444;42;20095;-53
2022/07/03 12:38:57;;;;;;;10.13;3.95;;;;;;;;;;3362487;42;20135;-56
2022/07/03 12:41:24;;;;;;;9.82;3.58;;;;;;;;;;3362615;42;20539;-56
2022/07/03 12:43:50;;;;;;;10.23;4.80;;;;;;;;;;3361930;42;20088;-56
2022/07/03 12:46:20;;;;;;;10.75;4.57;;;;;;;;;;3361805;42;20193;-53
2022/07/03 12:48:56;;;;;;;7.40;3.80;;;;;;;;;;3361741;42;20547;-60
2022/07/03 12:51:44;;;;;;;8.23;3.55;;;;;;;;;;3361644;42;20537;-55
2022/07/03 12:54:26;;;;;;;8.55;3.80;;;;;;;;;;3360048;42;20084;-54
2022/07/03 13:00:05;;;;;;;7.25;3.75;;;;;;;;;;3362599;42;20092;-52
2022/07/03 13:02:32;;;;;;;8.85;3.60;;;;;;;;;;3362992;42;20098;-51
2022/07/03 13:04:59;;;;;;;7.28;3.40;;;;;;;;;;3361668;42;20568;-53
2022/07/03 13:07:28;;;;;;;7.90;3.45;;;;;;;;;;3361676;42;20100;-56
2022/07/03 13:09:54;;;;;;;7.37;3.60;;;;;;;;;;3359777;42;20096;-52
2022/07/03 13:12:23;;;;;;;7.53;3.60;;;;;;;;;;3362185;42;20170;-57
2022/07/03 13:14:56;;;;;;;8.45;3.78;;;;;;;;;;3361674;42;20565;-54
2022/07/03 13:17:22;;;;;;;9.82;3.85;;;;;;;;;;3363020;42;20561;-56
2022/07/03 13:19:48;;;;;;;10.15;3.92;;;;;;;;;;3359962;42;20558;-57
2022/07/03 13:22:14;;;;;;;8.57;4.13;;;;;;;;;;3362075;42;20229;-57
2022/07/03 13:24:40;;;;;;;8.23;4.05;;;;;;;;;;3360031;42;20494;-59
2022/07/03 13:27:06;;;;;;;8.40;3.92;;;;;;;;;;3361890;42;20150;-54
2022/07/03 13:29:32;;;;;;;7.80;3.90;;;;;;;;;;3359831;42;20100;-53
2022/07/03 13:31:58;;;;;;;7.25;3.53;;;;;;;;;;3357681;42;20127;-56
2022/07/03 13:34:24;;;;;;;8.77;4.03;;;;;;;;;;3358146;42;20565;-54
2022/07/03 13:36:50;;;;;;;9.52;4.32;;;;;;;;;;3357811;42;20239;-55
2022/07/03 13:39:16;;;;;;;9.77;4.27;;;;;;;;;;3357605;42;20633;-55
2022/07/03 13:41:42;;;;;;;10.32;4.63;;;;;;;;;;3358115;42;20151;-54
2022/07/03 13:44:08;;;;;;;16.08;4.55;;;;;;;;;;3357851;42;20579;-54
2022/07/03 13:46:33;;;;;;;8.07;4.15;;;;;;;;;;3357529;42;20083;-55
2022/07/03 13:48:59;;;;;;;11.90;4.00;;;;;;;;;;3356406;42;20089;-56
2022/07/03 13:51:25;;;;;;;7.80;4.03;;;;;;;;;;3357383;42;20123;-56
2022/07/03 13:53:51;;;;;;;7.47;3.55;;;;;;;;;;3357906;42;20100;-57
2022/07/03 13:56:18;;;;;;;7.15;3.67;;;;;;;;;;3359286;42;20107;-56
2022/07/03 13:58:44;;;;;;;9.93;4.00;;;;;;;;;;3356199;42;20103;-57
2022/07/03 14:01:10;;;;;;;8.05;3.72;;;;;;;;;;3356279;42;20139;-52
2022/07/03 14:03:36;;;;;;;7.75;3.70;;;;;;;;;;3357750;42;20227;-55
2022/07/03 14:06:02;;;;;;;8.73;4.22;;;;;;;;;;3355947;42;20092;-53
2022/07/03 14:08:28;;;;;;;8.57;3.90;;;;;;;;;;3357308;42;20080;-53
2022/07/03 14:10:53;;;;;;;7.32;3.65;;;;;;;;;;3356993;42;20590;-51
2022/07/03 14:13:19;;;;;;;8.88;4.18;;;;;;;;;;3357293;42;20084;-54
2022/07/03 14:15:45;;;;;;;10.33;4.10;;;;;;;;;;3357517;42;20084;-50
2022/07/03 14:18:11;;;;;;;8.73;4.10;;;;;;;;;;3357217;42;20288;-56
2022/07/03 14:20:37;;;;;;;9.85;4.07;;;;;;;;;;3357441;42;20104;-50
2022/07/03 14:23:03;;;;;;;9.13;4.22;;;;;;;;;;3357573;42;20103;-50
2022/07/03 14:25:29;;;;;;;8.33;4.20;;;;;;;;;;3357520;42;20084;-55
2022/07/03 14:33:24;;;;;;;10.10;4.00;;;;;;;;;;3357108;42;20135;-54
2022/07/03 14:35:50;;;;;;;9.60;4.00;;;;;;;;;;3357644;42;20529;-53
2022/07/03 14:38:16;;;;;;;11.90;4.80;;;;;;;;;;3357648;42;20128;-55
2022/07/03 14:40:42;;;;;;;9.85;3.72;;;;;;;;;;3359245;42;20080;-55
2022/07/03 14:43:08;;;;;;;9.00;4.20;;;;;;;;;;3358223;42;20096;-55
2022/07/03 14:45:34;;;;;;;10.00;3.90;;;;;;;;;;3357350;42;20558;-53
2022/07/03 14:48:00;;;;;;;8.93;3.90;;;;;;;;;;3356317;42;20275;-55
2022/07/03 14:50:26;;;;;;;9.20;4.00;;;;;;;;;;3356488;42;20980;-55
2022/07/03 14:52:52;;;;;;;10.40;4.15;;;;;;;;;;3356933;42;20084;-56
2022/07/03 14:55:18;;;;;;;10.23;4.50;;;;;;;;;;3357964;42;20499;-52
2022/07/03 14:57:49;;;;;;;9.15;3.90;;;;;;;;;;3357534;42;20562;-54
2022/07/03 15:00:15;;;;;;;8.57;3.95;;;;;;;;;;3357110;42;20116;-57
2022/07/03 15:02:49;;;;;;;7.53;3.65;;;;;;;;;;3355393;42;20443;-57
2022/07/03 15:05:15;;;;;;;8.67;3.80;;;;;;;;;;3356940;42;20097;-56
2022/07/03 15:08:01;;;;;;;9.02;4.38;;;;;;;;;;3356761;42;20181;-54
2022/07/03 15:10:27;;;;;;;8.73;3.65;;;;;;;;;;3356209;42;20519;-54